Aviation Digital Data Service (ADDS)

Output produced by TAFs form (1100 UTC 23 October 2014)
found at http://aviationweather.gov/adds/tafs/
 
KDRO 230520Z 2306/2406 02004KT P6SM FEW250 
     FM231600 28007KT P6SM SCT250 
     FM232000 28007KT P6SM FEW140 SCT250 
     FM240100 36004KT P6SM FEW250